Map

Track Data

SID SEASON NUMBER BASIN SUBBASIN NAME ISO_TIME NATURE LAT LON WMO_WIND WMO_PRES WMO_AGENCY TRACK_TYPE DIST2LAND LANDFALL IFLAG USA_AGENCY USA_ATCF_ID USA_LAT USA_LON USA_RECORD USA_STATUS USA_WIND USA_PRES USA_SSHS USA_R34_NE USA_R34_SE USA_R34_SW USA_R34_NW USA_R50_NE USA_R50_SE USA_R50_SW USA_R50_NW USA_R64_NE USA_R64_SE USA_R64_SW USA_R64_NW USA_POCI USA_ROCI USA_RMW USA_EYE TOKYO_LAT TOKYO_LON TOKYO_GRADE TOKYO_WIND TOKYO_PRES TOKYO_R50_DIR TOKYO_R50_LONG TOKYO_R50_SHORT TOKYO_R30_DIR TOKYO_R30_LONG TOKYO_R30_SHORT TOKYO_LAND CMA_LAT CMA_LON CMA_CAT CMA_WIND CMA_PRES HKO_LAT HKO_LON HKO_CAT HKO_WIND HKO_PRES NEWDELHI_LAT NEWDELHI_LON NEWDELHI_GRADE NEWDELHI_WIND NEWDELHI_PRES NEWDELHI_CI NEWDELHI_DP NEWDELHI_POCI REUNION_LAT REUNION_LON REUNION_TYPE REUNION_WIND REUNION_PRES REUNION_TNUM REUNION_CI REUNION_RMW REUNION_R34_NE REUNION_R34_SE REUNION_R34_SW REUNION_R34_NW REUNION_R50_NE REUNION_R50_SE REUNION_R50_SW REUNION_R50_NW REUNION_R64_NE REUNION_R64_SE REUNION_R64_SW REUNION_R64_NW BOM_LAT BOM_LON BOM_TYPE BOM_WIND BOM_PRES BOM_TNUM BOM_CI BOM_RMW BOM_R34_NE BOM_R34_SE BOM_R34_SW BOM_R34_NW BOM_R50_NE BOM_R50_SE BOM_R50_SW BOM_R50_NW BOM_R64_NE BOM_R64_SE BOM_R64_SW BOM_R64_NW BOM_ROCI BOM_POCI BOM_EYE BOM_POS_METHOD BOM_PRES_METHOD NADI_LAT NADI_LON NADI_CAT NADI_WIND NADI_PRES WELLINGTON_LAT WELLINGTON_LON WELLINGTON_WIND WELLINGTON_PRES DS824_LAT DS824_LON DS824_STAGE DS824_WIND DS824_PRES TD9636_LAT TD9636_LON TD9636_STAGE TD9636_WIND TD9636_PRES TD9635_LAT TD9635_LON TD9635_WIND TD9635_PRES TD9635_ROCI NEUMANN_LAT NEUMANN_LON NEUMANN_CLASS NEUMANN_WIND NEUMANN_PRES MLC_LAT MLC_LON MLC_CLASS MLC_WIND MLC_PRES USA_GUST BOM_GUST BOM_GUST_PER REUNION_GUST REUNION_GUST_PER USA_SEAHGT USA_SEARAD_NE USA_SEARAD_SE USA_SEARAD_SW USA_SEARAD_NW STORM_SPEED STORM_DIR
1949246N17248 1949 65 EP MM NOT_NAMED 1949-09-02 12:00:00 NR 16.9000 -112.000 main 702 695 __________O___ -1 16.9000 -112.000 2 3 290
1949246N17248 1949 65 EP MM NOT_NAMED 1949-09-02 15:00:00 NR 16.9542 -112.153 main 698 698 __________P___ -1 16.9542 -112.153 2 3 288
1949246N17248 1949 65 EP MM NOT_NAMED 1949-09-02 18:00:00 NR 17.0067 -112.335 main 702 699 __________P___ -1 17.0067 -112.335 2 4 284
1949246N17248 1949 65 EP MM NOT_NAMED 1949-09-02 21:00:00 NR 17.0559 -112.574 main 703 703 __________P___ -1 17.0559 -112.574 2 5 280
1949246N17248 1949 65 EP MM NOT_NAMED 1949-09-03 00:00:00 NR 17.1000 -112.900 main 715 715 __________O___ -1 17.1000 -112.900 2 7 277
1949246N17248 1949 65 EP MM NOT_NAMED 1949-09-03 03:00:00 NR 17.1386 -113.326 main 734 734 __________P___ -1 17.1386 -113.326 2 9 275
1949246N17248 1949 65 EP MM NOT_NAMED 1949-09-03 06:00:00 NR 17.1787 -113.808 main 750 750 __________P___ -1 17.1787 -113.808 2 9 276
1949246N17248 1949 65 EP MM NOT_NAMED 1949-09-03 09:00:00 NR 17.2292 -114.285 main 779 779 __________P___ -1 17.2292 -114.285 2 9 278
1949246N17248 1949 65 EP MM NOT_NAMED 1949-09-03 12:00:00 NR 17.3000 -114.700 main 795 795 __________O___ -1 17.3000 -114.700 2 7 285
1949246N17248 1949 65 EP MM NOT_NAMED 1949-09-03 15:00:00 NR 17.4110 -114.984 main 806 804 __________P___ -1 17.4110 -114.984 2 5 297
1949246N17248 1949 65 EP MM NOT_NAMED 1949-09-03 18:00:00 NR 17.5419 -115.197 main 811 802 __________P___ -1 17.5419 -115.197 2 4 306
1949246N17248 1949 65 EP MM NOT_NAMED 1949-09-03 21:00:00 NR 17.6768 -115.362 main 809 801 __________P___ -1 17.6768 -115.362 2 4 312
1949246N17248 1949 65 EP MM NOT_NAMED 1949-09-04 00:00:00 NR 17.8000 -115.500 main 808 808 __________O___ -1 17.8000 -115.500 2 4 307
1949246N17248 1949 65 EP MM NOT_NAMED 1949-09-04 03:00:00 NR 17.8893 -115.655 main 815 815 __________P___ -1 17.8893 -115.655 2 3 301
1949246N17248 1949 65 EP MM NOT_NAMED 1949-09-04 06:00:00 NR 17.9649 -115.788 main 815 815 __________P___ -1 17.9649 -115.788 2 3 302
1949246N17248 1949 65 EP MM NOT_NAMED 1949-09-04 09:00:00 NR 18.0331 -115.902 main 823 815 __________P___ -1 18.0331 -115.902 2 2 304
1949246N17248 1949 65 EP MM NOT_NAMED 1949-09-04 12:00:00 NR 18.1000 -116.000 main 823 823 __________O___ -1 18.1000 -116.000 2 2 309
1949246N17248 1949 65 EP MM NOT_NAMED 1949-09-04 15:00:00 NR 18.1749 -116.085 main 824 824 __________P___ -1 18.1749 -116.085 2 2 316
1949246N17248 1949 65 EP MM NOT_NAMED 1949-09-04 18:00:00 NR 18.2499 -116.158 main 832 824 __________P___ -1 18.2499 -116.158 2 2 319
1949246N17248 1949 65 EP MM NOT_NAMED 1949-09-04 21:00:00 NR 18.3249 -116.226 main 824 824 __________P___ -1 18.3249 -116.226 2 2 318
1949246N17248 1949 65 EP MM NOT_NAMED 1949-09-05 00:00:00 NR 18.4000 -116.300 main 825 822 __________O___ -1 18.4000 -116.300 2 2 318
1949246N17248 1949 65 EP MM NOT_NAMED 1949-09-05 03:00:00 NR 18.4912 -116.385 main 822 813 __________P___ -1 18.4912 -116.385 2 2 317
1949246N17248 1949 65 EP MM NOT_NAMED 1949-09-05 06:00:00 NR 18.5799 -116.477 main 819 815 __________P___ -1 18.5799 -116.477 2 2 311
1949246N17248 1949 65 EP MM NOT_NAMED 1949-09-05 09:00:00 NR 18.6537 -116.581 main 815 815 __________P___ -1 18.6537 -116.581 2 2 300
1949246N17248 1949 65 EP MM NOT_NAMED 1949-09-05 12:00:00 NR 18.7000 -116.700 main 821 821 __________O___ -1 18.7000 -116.700 2 2 281
1949246N17248 1949 65 EP MM NOT_NAMED 1949-09-05 15:00:00 NR 18.6997 -116.832 main 827 827 __________P___ -1 18.6997 -116.832 2 3 264
1949246N17248 1949 65 EP MM NOT_NAMED 1949-09-05 18:00:00 NR 18.6725 -116.978 main 840 840 __________P___ -1 18.6725 -116.978 2 3 257
1949246N17248 1949 65 EP MM NOT_NAMED 1949-09-05 21:00:00 NR 18.6340 -117.135 main 855 855 __________P___ -1 18.6340 -117.135 2 3 257
1949246N17248 1949 65 EP MM NOT_NAMED 1949-09-06 00:00:00 NR 18.6000 -117.300 main 868 868 __________O___ -1 18.6000 -117.300 2 3 261
1949246N17248 1949 65 EP MM NOT_NAMED 1949-09-06 03:00:00 NR 18.5847 -117.480 main 880 880 __________P___ -1 18.5847 -117.480 2 3 266
1949246N17248 1949 65 EP MM NOT_NAMED 1949-09-06 06:00:00 NR 18.5776 -117.665 main 894 894 __________P___ -1 18.5776 -117.665 2 3 269
1949246N17248 1949 65 EP MM NOT_NAMED 1949-09-06 09:00:00 NR 18.5816 -117.843 main 900 900 __________P___ -1 18.5816 -117.843 2 3 274
1949246N17248 1949 65 EP MM NOT_NAMED 1949-09-06 12:00:00 NR 18.6000 -118.000 main 914 914 __________O___ -1 18.6000 -118.000 2 3 278
1949246N17248 1949 65 EP MM NOT_NAMED 1949-09-06 15:00:00 NR 18.6193 -118.130 main 921 920 __________P___ -1 18.6193 -118.130 2 2 284
1949246N17248 1949 65 EP MM NOT_NAMED 1949-09-06 18:00:00 NR 18.6549 -118.238 main 920 920 __________P___ -1 18.6549 -118.238 2 2 297
1949246N17248 1949 65 EP MM NOT_NAMED 1949-09-06 21:00:00 NR 18.7131 -118.327 main 927 926 __________P___ -1 18.7131 -118.327 2 2 314
1949246N17248 1949 65 EP MM NOT_NAMED 1949-09-07 00:00:00 NR 18.8000 -118.400 main 926 918 __________O___ -1 18.8000 -118.400 2 2 329
1949246N17248 1949 65 EP MM NOT_NAMED 1949-09-07 03:00:00 NR 18.9194 -118.461 main 925 909 __________P___ -1 18.9194 -118.461 2 3 338
1949246N17248 1949 65 EP MM NOT_NAMED 1949-09-07 06:00:00 NR 19.0650 -118.512 main 909 901 __________P___ -1 19.0650 -118.512 2 3 344
1949246N17248 1949 65 EP MM NOT_NAMED 1949-09-07 09:00:00 NR 19.2281 -118.558 main 909 893 __________P___ -1 19.2281 -118.558 2 3 346
1949246N17248 1949 65 EP MM NOT_NAMED 1949-09-07 12:00:00 NR 19.4000 -118.600 main 893 __________O___ -1 19.4000 -118.600 2 4 346

About IBTrACS Database

This database is a web-friendly format of International Best Track Archive for Climate Stewardship (IBTrACS), a global best track data archive curated by NOAA dating back to 1842.

Updated: 2021-10-21